Pagrindinis puslapis
METAR-TAF:

METAR-TAF

Oro uostai :

Kuširas, Japonija

platuma: 43-02N, ilguma: 144-12E, Aukštis: 95 m

Dabartinis oras

Ataskaita buvo paskelbta 57 minutes, ne 11:00 UTC
Vėjas 3 kt iš Šiaurės/Šiaurės Vakarų
Temperatūra -9°C
Drėgmė 62%
Slėgis 1021 hPa
Matomumas 10 km arba daugiau
Mažai debesys ne aukštis 3000 ft

METAR: RJCK 261100Z 33003KT 9999 FEW030 M09/M15 Q1021

Laikas: 20:57 (11:57 UTC)

Prognozė

Ataskaita buvo paskelbta 47 minutes, ne 11:10 UTC
Prognozė galioja nuo 26 metu 12 UTC su 27 metu 18 UTC
Vėjas 4 kt iš Šiaurės/Šiaurės Vakarų
Matomumas 10 km arba daugiau
Mažai debesys ne aukštis 3000 ft

TAF: RJCK 261110Z 2612/2718 34004KT 9999 FEW030

Orai ataskaitas ir orų prognozės (METAR, TAF).

turimą stotys yra geltonos ir raudonos taškus žemėlapyje.

Perkelti pele per norėdami pamatyti stoties vardą.

Tada spustelėkite, norėdami matyti oro stebėjimo ir prognozės.

Norėdami pakeisti žemėlapį: spustelėkite ant žalios mygtukų su juodo kryžiaus žemyn,; žalią mygtuką su brūkšneliu, jei norite nutolinti; arba žalių rodyklių gretimoms žemėlapius.


METAR-TAF: